sensor_id;sensor_type;location;lat;lon;timestamp;P1;durP1;ratioP1;P2;durP2;ratioP2
60819;SDS011;46641;48.904;9.126;2022-09-17T00:02:35;1.00;;;1.00;;
60819;SDS011;46641;48.904;9.126;2022-09-17T00:07:26;1.47;;;0.83;;
60819;SDS011;46641;48.904;9.126;2022-09-17T00:12:17;0.87;;;0.70;;
60819;SDS011;46641;48.904;9.126;2022-09-17T00:17:07;2.17;;;1.10;;
60819;SDS011;46641;48.904;9.126;2022-09-17T00:21:58;0.70;;;0.70;;
60819;SDS011;46641;48.904;9.126;2022-09-17T00:26:48;1.77;;;0.80;;
60819;SDS011;46641;48.904;9.126;2022-09-17T00:31:39;1.57;;;0.90;;
60819;SDS011;46641;48.904;9.126;2022-09-17T00:36:30;1.43;;;0.70;;
60819;SDS011;46641;48.904;9.126;2022-09-17T00:41:21;0.70;;;0.70;;
60819;SDS011;46641;48.904;9.126;2022-09-17T00:46:19;2.97;;;1.10;;
60819;SDS011;46641;48.904;9.126;2022-09-17T00:51:36;1.43;;;0.90;;
60819;SDS011;46641;48.904;9.126;2022-09-17T00:56:39;1.30;;;0.93;;
60819;SDS011;46641;48.904;9.126;2022-09-17T01:01:32;1.20;;;0.80;;
60819;SDS011;46641;48.904;9.126;2022-09-17T01:06:43;2.00;;;1.00;;
60819;SDS011;46641;48.904;9.126;2022-09-17T01:37:11;1.20;;;1.03;;
60819;SDS011;46641;48.904;9.126;2022-09-17T01:47:10;1.00;;;0.97;;
60819;SDS011;46641;48.904;9.126;2022-09-17T01:52:10;1.10;;;1.00;;
60819;SDS011;46641;48.904;9.126;2022-09-17T01:57:06;1.83;;;0.97;;
60819;SDS011;46641;48.904;9.126;2022-09-17T02:02:06;2.77;;;1.00;;
60819;SDS011;46641;48.904;9.126;2022-09-17T02:07:06;1.70;;;1.20;;
60819;SDS011;46641;48.904;9.126;2022-09-17T02:12:04;1.27;;;1.17;;
60819;SDS011;46641;48.904;9.126;2022-09-17T02:17:02;1.17;;;1.00;;
60819;SDS011;46641;48.904;9.126;2022-09-17T02:22:01;2.37;;;1.00;;
60819;SDS011;46641;48.904;9.126;2022-09-17T02:27:33;0.83;;;0.83;;
60819;SDS011;46641;48.904;9.126;2022-09-17T02:32:35;3.13;;;1.30;;
60819;SDS011;46641;48.904;9.126;2022-09-17T02:37:25;1.57;;;1.13;;
60819;SDS011;46641;48.904;9.126;2022-09-17T02:48:02;2.73;;;1.37;;
60819;SDS011;46641;48.904;9.126;2022-09-17T02:58:20;1.17;;;1.10;;
60819;SDS011;46641;48.904;9.126;2022-09-17T03:03:38;3.50;;;1.20;;
60819;SDS011;46641;48.904;9.126;2022-09-17T03:08:35;1.63;;;1.07;;
60819;SDS011;46641;48.904;9.126;2022-09-17T03:13:29;2.97;;;1.30;;
60819;SDS011;46641;48.904;9.126;2022-09-17T03:18:19;3.13;;;1.13;;
60819;SDS011;46641;48.904;9.126;2022-09-17T03:23:10;2.33;;;1.10;;
60819;SDS011;46641;48.904;9.126;2022-09-17T03:28:00;3.87;;;1.13;;
60819;SDS011;46641;48.904;9.126;2022-09-17T03:32:50;2.07;;;1.00;;
60819;SDS011;46641;48.904;9.126;2022-09-17T03:37:41;1.93;;;0.97;;
60819;SDS011;46641;48.904;9.126;2022-09-17T03:42:32;1.00;;;0.90;;
60819;SDS011;46641;48.904;9.126;2022-09-17T03:47:22;2.67;;;1.35;;
60819;SDS011;46641;48.904;9.126;2022-09-17T03:52:12;2.30;;;1.30;;
60819;SDS011;46641;48.904;9.126;2022-09-17T03:57:03;1.30;;;1.13;;
60819;SDS011;46641;48.904;9.126;2022-09-17T04:01:53;2.30;;;1.40;;
60819;SDS011;46641;48.904;9.126;2022-09-17T04:06:43;2.53;;;1.10;;
60819;SDS011;46641;48.904;9.126;2022-09-17T04:11:33;3.20;;;1.17;;
60819;SDS011;46641;48.904;9.126;2022-09-17T04:16:24;2.83;;;1.47;;
60819;SDS011;46641;48.904;9.126;2022-09-17T04:21:15;1.93;;;1.00;;
60819;SDS011;46641;48.904;9.126;2022-09-17T04:26:05;1.42;;;1.15;;
60819;SDS011;46641;48.904;9.126;2022-09-17T04:30:55;2.70;;;1.50;;
60819;SDS011;46641;48.904;9.126;2022-09-17T04:35:46;2.70;;;1.43;;
60819;SDS011;46641;48.904;9.126;2022-09-17T04:40:37;3.20;;;1.50;;
60819;SDS011;46641;48.904;9.126;2022-09-17T04:45:27;1.77;;;1.10;;
60819;SDS011;46641;48.904;9.126;2022-09-17T04:50:19;3.47;;;1.43;;
60819;SDS011;46641;48.904;9.126;2022-09-17T04:55:10;3.30;;;1.50;;
60819;SDS011;46641;48.904;9.126;2022-09-17T05:00:02;2.23;;;1.33;;
60819;SDS011;46641;48.904;9.126;2022-09-17T05:04:55;3.53;;;1.50;;
60819;SDS011;46641;48.904;9.126;2022-09-17T05:09:45;2.73;;;1.50;;
60819;SDS011;46641;48.904;9.126;2022-09-17T05:14:36;2.80;;;1.40;;
60819;SDS011;46641;48.904;9.126;2022-09-17T05:19:26;2.50;;;1.40;;
60819;SDS011;46641;48.904;9.126;2022-09-17T05:24:16;3.87;;;1.47;;
60819;SDS011;46641;48.904;9.126;2022-09-17T05:29:07;3.67;;;2.10;;
60819;SDS011;46641;48.904;9.126;2022-09-17T05:33:57;2.80;;;1.80;;
60819;SDS011;46641;48.904;9.126;2022-09-17T05:38:48;3.63;;;2.30;;
60819;SDS011;46641;48.904;9.126;2022-09-17T05:43:39;2.80;;;1.77;;
60819;SDS011;46641;48.904;9.126;2022-09-17T05:48:31;1.57;;;1.30;;
60819;SDS011;46641;48.904;9.126;2022-09-17T05:53:22;2.30;;;1.80;;
60819;SDS011;46641;48.904;9.126;2022-09-17T05:58:14;4.30;;;1.80;;
60819;SDS011;46641;48.904;9.126;2022-09-17T06:03:07;2.20;;;1.60;;
60819;SDS011;46641;48.904;9.126;2022-09-17T06:07:59;3.00;;;1.70;;
60819;SDS011;46641;48.904;9.126;2022-09-17T06:12:54;1.73;;;1.63;;
60819;SDS011;46641;48.904;9.126;2022-09-17T06:17:48;3.03;;;2.00;;
60819;SDS011;46641;48.904;9.126;2022-09-17T06:22:38;3.87;;;1.70;;
60819;SDS011;46641;48.904;9.126;2022-09-17T06:27:31;3.83;;;2.50;;
60819;SDS011;46641;48.904;9.126;2022-09-17T06:32:22;4.07;;;2.50;;
60819;SDS011;46641;48.904;9.126;2022-09-17T06:37:13;2.63;;;1.90;;
60819;SDS011;46641;48.904;9.126;2022-09-17T06:42:03;3.83;;;1.87;;
60819;SDS011;46641;48.904;9.126;2022-09-17T06:46:54;2.70;;;1.83;;
60819;SDS011;46641;48.904;9.126;2022-09-17T06:51:44;2.70;;;1.77;;
60819;SDS011;46641;48.904;9.126;2022-09-17T06:56:34;3.43;;;2.30;;
60819;SDS011;46641;48.904;9.126;2022-09-17T07:01:25;3.50;;;1.83;;
60819;SDS011;46641;48.904;9.126;2022-09-17T07:06:15;2.70;;;1.80;;
60819;SDS011;46641;48.904;9.126;2022-09-17T07:11:06;2.50;;;1.73;;
60819;SDS011;46641;48.904;9.126;2022-09-17T07:15:58;4.10;;;1.77;;
60819;SDS011;46641;48.904;9.126;2022-09-17T07:20:53;1.97;;;1.77;;
60819;SDS011;46641;48.904;9.126;2022-09-17T07:25:49;1.90;;;1.70;;
60819;SDS011;46641;48.904;9.126;2022-09-17T07:30:41;3.30;;;1.90;;
60819;SDS011;46641;48.904;9.126;2022-09-17T07:35:31;4.40;;;1.70;;
60819;SDS011;46641;48.904;9.126;2022-09-17T07:40:21;2.33;;;1.80;;
60819;SDS011;46641;48.904;9.126;2022-09-17T07:45:11;2.00;;;1.70;;
60819;SDS011;46641;48.904;9.126;2022-09-17T07:50:02;2.75;;;1.80;;
60819;SDS011;46641;48.904;9.126;2022-09-17T07:54:52;2.97;;;2.00;;
60819;SDS011;46641;48.904;9.126;2022-09-17T07:59:42;1.87;;;1.60;;
60819;SDS011;46641;48.904;9.126;2022-09-17T08:04:33;3.80;;;1.60;;
60819;SDS011;46641;48.904;9.126;2022-09-17T08:09:23;3.83;;;1.97;;
60819;SDS011;46641;48.904;9.126;2022-09-17T08:14:14;2.70;;;1.70;;
60819;SDS011;46641;48.904;9.126;2022-09-17T08:19:04;2.63;;;1.80;;
60819;SDS011;46641;48.904;9.126;2022-09-17T08:23:55;3.07;;;2.33;;
60819;SDS011;46641;48.904;9.126;2022-09-17T08:28:47;4.60;;;2.23;;
60819;SDS011;46641;48.904;9.126;2022-09-17T08:33:39;5.60;;;2.87;;
60819;SDS011;46641;48.904;9.126;2022-09-17T08:38:30;3.17;;;1.93;;
60819;SDS011;46641;48.904;9.126;2022-09-17T08:43:22;2.80;;;2.20;;
60819;SDS011;46641;48.904;9.126;2022-09-17T08:48:14;2.42;;;1.98;;
60819;SDS011;46641;48.904;9.126;2022-09-17T09:03:55;3.80;;;2.30;;
60819;SDS011;46641;48.904;9.126;2022-09-17T09:08:56;5.80;;;2.40;;
60819;SDS011;46641;48.904;9.126;2022-09-17T09:14:04;4.10;;;2.33;;
60819;SDS011;46641;48.904;9.126;2022-09-17T09:24:22;5.80;;;1.77;;
60819;SDS011;46641;48.904;9.126;2022-09-17T09:34:25;7.63;;;1.90;;
60819;SDS011;46641;48.904;9.126;2022-09-17T09:39:24;5.67;;;2.30;;
60819;SDS011;46641;48.904;9.126;2022-09-17T09:44:24;3.00;;;2.40;;
60819;SDS011;46641;48.904;9.126;2022-09-17T09:54:40;7.00;;;2.47;;
60819;SDS011;46641;48.904;9.126;2022-09-17T09:59:49;5.43;;;2.03;;
60819;SDS011;46641;48.904;9.126;2022-09-17T10:04:40;6.50;;;2.30;;
60819;SDS011;46641;48.904;9.126;2022-09-17T10:09:30;4.73;;;2.13;;
60819;SDS011;46641;48.904;9.126;2022-09-17T10:14:27;3.27;;;1.90;;
60819;SDS011;46641;48.904;9.126;2022-09-17T10:19:20;3.03;;;2.10;;
60819;SDS011;46641;48.904;9.126;2022-09-17T10:24:21;3.93;;;2.13;;
60819;SDS011;46641;48.904;9.126;2022-09-17T10:29:17;5.07;;;2.50;;
60819;SDS011;46641;48.904;9.126;2022-09-17T10:34:10;3.87;;;2.17;;
60819;SDS011;46641;48.904;9.126;2022-09-17T10:39:42;6.67;;;2.07;;
60819;SDS011;46641;48.904;9.126;2022-09-17T10:44:32;4.57;;;1.90;;
60819;SDS011;46641;48.904;9.126;2022-09-17T10:54:28;3.20;;;2.15;;
60819;SDS011;46641;48.904;9.126;2022-09-17T10:59:47;2.73;;;1.50;;
60819;SDS011;46641;48.904;9.126;2022-09-17T11:09:52;2.10;;;1.43;;
60819;SDS011;46641;48.904;9.126;2022-09-17T11:30:31;3.17;;;1.63;;
60819;SDS011;46641;48.904;9.126;2022-09-17T11:35:38;3.07;;;1.83;;
60819;SDS011;46641;48.904;9.126;2022-09-17T11:40:39;5.57;;;1.73;;
60819;SDS011;46641;48.904;9.126;2022-09-17T11:45:37;2.53;;;1.40;;
60819;SDS011;46641;48.904;9.126;2022-09-17T11:50:31;2.87;;;1.63;;
60819;SDS011;46641;48.904;9.126;2022-09-17T11:55:32;3.73;;;1.70;;
60819;SDS011;46641;48.904;9.126;2022-09-17T12:00:28;2.97;;;1.73;;
60819;SDS011;46641;48.904;9.126;2022-09-17T12:05:26;2.53;;;1.60;;
60819;SDS011;46641;48.904;9.126;2022-09-17T12:15:39;2.97;;;1.50;;
60819;SDS011;46641;48.904;9.126;2022-09-17T12:20:34;2.53;;;1.50;;
60819;SDS011;46641;48.904;9.126;2022-09-17T12:25:29;1.87;;;1.50;;
60819;SDS011;46641;48.904;9.126;2022-09-17T12:30:40;2.33;;;1.60;;
60819;SDS011;46641;48.904;9.126;2022-09-17T12:40:47;2.50;;;1.63;;
60819;SDS011;46641;48.904;9.126;2022-09-17T12:51:08;1.80;;;1.30;;
60819;SDS011;46641;48.904;9.126;2022-09-17T13:06:57;2.00;;;1.30;;
60819;SDS011;46641;48.904;9.126;2022-09-17T13:21:50;1.87;;;0.80;;
60819;SDS011;46641;48.904;9.126;2022-09-17T13:26:45;3.43;;;1.20;;
60819;SDS011;46641;48.904;9.126;2022-09-17T13:41:39;2.97;;;2.10;;
60819;SDS011;46641;48.904;9.126;2022-09-17T13:46:31;1.97;;;1.20;;
60819;SDS011;46641;48.904;9.126;2022-09-17T14:16:22;1.93;;;1.33;;
60819;SDS011;46641;48.904;9.126;2022-09-17T14:21:17;1.60;;;1.30;;
60819;SDS011;46641;48.904;9.126;2022-09-17T14:26:52;3.17;;;1.30;;
60819;SDS011;46641;48.904;9.126;2022-09-17T14:31:44;1.47;;;1.20;;
60819;SDS011;46641;48.904;9.126;2022-09-17T14:36:36;1.70;;;1.37;;
60819;SDS011;46641;48.904;9.126;2022-09-17T14:41:30;2.27;;;1.30;;
60819;SDS011;46641;48.904;9.126;2022-09-17T14:46:26;4.47;;;1.50;;
60819;SDS011;46641;48.904;9.126;2022-09-17T14:56:16;2.57;;;1.97;;
60819;SDS011;46641;48.904;9.126;2022-09-17T15:01:29;2.43;;;1.47;;
60819;SDS011;46641;48.904;9.126;2022-09-17T15:06:21;2.80;;;1.37;;
60819;SDS011;46641;48.904;9.126;2022-09-17T15:11:12;1.33;;;1.23;;
60819;SDS011;46641;48.904;9.126;2022-09-17T15:16:04;2.13;;;1.60;;
60819;SDS011;46641;48.904;9.126;2022-09-17T15:21:02;3.60;;;1.47;;
60819;SDS011;46641;48.904;9.126;2022-09-17T15:25:56;4.60;;;1.40;;
60819;SDS011;46641;48.904;9.126;2022-09-17T15:30:49;5.00;;;1.77;;
60819;SDS011;46641;48.904;9.126;2022-09-17T15:35:40;2.77;;;1.50;;
60819;SDS011;46641;48.904;9.126;2022-09-17T15:40:48;4.23;;;1.50;;
60819;SDS011;46641;48.904;9.126;2022-09-17T15:45:39;4.47;;;1.80;;
60819;SDS011;46641;48.904;9.126;2022-09-17T15:50:32;2.80;;;1.20;;
60819;SDS011;46641;48.904;9.126;2022-09-17T15:55:34;2.27;;;1.50;;
60819;SDS011;46641;48.904;9.126;2022-09-17T16:00:27;2.10;;;1.80;;
60819;SDS011;46641;48.904;9.126;2022-09-17T16:10:14;1.50;;;1.30;;
60819;SDS011;46641;48.904;9.126;2022-09-17T16:15:04;2.70;;;1.63;;
60819;SDS011;46641;48.904;9.126;2022-09-17T16:19:55;2.57;;;1.40;;
60819;SDS011;46641;48.904;9.126;2022-09-17T16:24:46;5.13;;;1.63;;
60819;SDS011;46641;48.904;9.126;2022-09-17T16:29:36;2.93;;;1.30;;
60819;SDS011;46641;48.904;9.126;2022-09-17T16:34:26;2.13;;;1.27;;
60819;SDS011;46641;48.904;9.126;2022-09-17T16:39:16;2.83;;;1.50;;
60819;SDS011;46641;48.904;9.126;2022-09-17T16:44:07;4.77;;;1.73;;
60819;SDS011;46641;48.904;9.126;2022-09-17T16:48:58;2.20;;;1.40;;
60819;SDS011;46641;48.904;9.126;2022-09-17T16:53:49;1.47;;;1.20;;
60819;SDS011;46641;48.904;9.126;2022-09-17T16:58:39;3.13;;;1.50;;
60819;SDS011;46641;48.904;9.126;2022-09-17T17:03:30;2.37;;;1.50;;
60819;SDS011;46641;48.904;9.126;2022-09-17T17:08:20;5.70;;;2.10;;
60819;SDS011;46641;48.904;9.126;2022-09-17T17:13:11;1.90;;;1.40;;
60819;SDS011;46641;48.904;9.126;2022-09-17T17:18:02;2.33;;;1.40;;
60819;SDS011;46641;48.904;9.126;2022-09-17T17:22:52;2.30;;;1.23;;
60819;SDS011;46641;48.904;9.126;2022-09-17T17:27:43;2.67;;;1.33;;
60819;SDS011;46641;48.904;9.126;2022-09-17T17:32:34;1.80;;;1.30;;
60819;SDS011;46641;48.904;9.126;2022-09-17T17:37:25;1.97;;;1.20;;
60819;SDS011;46641;48.904;9.126;2022-09-17T17:42:15;1.37;;;1.27;;
60819;SDS011;46641;48.904;9.126;2022-09-17T17:47:06;2.73;;;1.57;;
60819;SDS011;46641;48.904;9.126;2022-09-17T17:51:56;2.25;;;1.55;;
60819;SDS011;46641;48.904;9.126;2022-09-17T17:56:46;2.20;;;1.40;;
60819;SDS011;46641;48.904;9.126;2022-09-17T18:01:36;1.67;;;1.20;;
60819;SDS011;46641;48.904;9.126;2022-09-17T18:06:27;1.40;;;1.30;;
60819;SDS011;46641;48.904;9.126;2022-09-17T18:11:18;2.43;;;1.60;;
60819;SDS011;46641;48.904;9.126;2022-09-17T18:16:10;2.10;;;1.27;;
60819;SDS011;46641;48.904;9.126;2022-09-17T18:21:03;2.10;;;1.13;;
60819;SDS011;46641;48.904;9.126;2022-09-17T18:25:56;1.10;;;1.00;;
60819;SDS011;46641;48.904;9.126;2022-09-17T18:30:49;1.97;;;1.47;;
60819;SDS011;46641;48.904;9.126;2022-09-17T18:35:39;2.33;;;1.50;;
60819;SDS011;46641;48.904;9.126;2022-09-17T18:40:30;1.97;;;1.20;;
60819;SDS011;46641;48.904;9.126;2022-09-17T18:45:20;3.10;;;1.20;;
60819;SDS011;46641;48.904;9.126;2022-09-17T18:50:10;3.17;;;1.50;;
60819;SDS011;46641;48.904;9.126;2022-09-17T18:55:03;2.87;;;1.70;;
60819;SDS011;46641;48.904;9.126;2022-09-17T18:59:53;2.07;;;1.47;;
60819;SDS011;46641;48.904;9.126;2022-09-17T19:04:44;3.83;;;1.63;;
60819;SDS011;46641;48.904;9.126;2022-09-17T19:09:34;2.33;;;1.50;;
60819;SDS011;46641;48.904;9.126;2022-09-17T19:14:24;1.70;;;1.37;;
60819;SDS011;46641;48.904;9.126;2022-09-17T19:19:15;1.10;;;1.10;;
60819;SDS011;46641;48.904;9.126;2022-09-17T19:24:05;1.00;;;0.80;;
60819;SDS011;46641;48.904;9.126;2022-09-17T19:28:56;1.10;;;0.83;;
60819;SDS011;46641;48.904;9.126;2022-09-17T19:33:49;0.63;;;0.63;;
60819;SDS011;46641;48.904;9.126;2022-09-17T19:38:40;0.67;;;0.60;;
60819;SDS011;46641;48.904;9.126;2022-09-17T19:43:31;0.90;;;0.70;;
60819;SDS011;46641;48.904;9.126;2022-09-17T19:48:22;1.37;;;0.63;;
60819;SDS011;46641;48.904;9.126;2022-09-17T19:53:12;0.97;;;0.70;;
60819;SDS011;46641;48.904;9.126;2022-09-17T19:58:02;1.93;;;1.43;;
60819;SDS011;46641;48.904;9.126;2022-09-17T20:02:53;2.70;;;0.97;;
60819;SDS011;46641;48.904;9.126;2022-09-17T20:07:43;2.92;;;1.05;;
60819;SDS011;46641;48.904;9.126;2022-09-17T20:12:34;0.90;;;0.80;;
60819;SDS011;46641;48.904;9.126;2022-09-17T20:17:24;1.10;;;1.00;;
60819;SDS011;46641;48.904;9.126;2022-09-17T20:22:15;1.53;;;1.00;;
60819;SDS011;46641;48.904;9.126;2022-09-17T20:27:05;1.00;;;0.80;;
60819;SDS011;46641;48.904;9.126;2022-09-17T20:31:55;0.67;;;0.67;;
60819;SDS011;46641;48.904;9.126;2022-09-17T20:36:46;1.30;;;0.77;;
60819;SDS011;46641;48.904;9.126;2022-09-17T20:41:37;1.33;;;1.10;;
60819;SDS011;46641;48.904;9.126;2022-09-17T20:46:27;1.07;;;0.97;;
60819;SDS011;46641;48.904;9.126;2022-09-17T20:51:22;0.90;;;0.60;;
60819;SDS011;46641;48.904;9.126;2022-09-17T20:56:17;2.03;;;1.07;;
60819;SDS011;46641;48.904;9.126;2022-09-17T21:01:11;1.93;;;1.20;;
60819;SDS011;46641;48.904;9.126;2022-09-17T21:06:04;1.83;;;0.97;;
60819;SDS011;46641;48.904;9.126;2022-09-17T21:10:54;1.00;;;0.90;;
60819;SDS011;46641;48.904;9.126;2022-09-17T21:15:58;3.22;;;1.15;;
60819;SDS011;46641;48.904;9.126;2022-09-17T21:20:49;2.77;;;1.50;;
60819;SDS011;46641;48.904;9.126;2022-09-17T21:25:39;2.37;;;1.20;;
60819;SDS011;46641;48.904;9.126;2022-09-17T21:30:29;1.47;;;1.37;;
60819;SDS011;46641;48.904;9.126;2022-09-17T21:35:20;2.77;;;1.43;;
60819;SDS011;46641;48.904;9.126;2022-09-17T21:40:11;2.10;;;1.40;;
60819;SDS011;46641;48.904;9.126;2022-09-17T21:45:01;3.20;;;1.20;;
60819;SDS011;46641;48.904;9.126;2022-09-17T21:49:51;3.67;;;1.37;;
60819;SDS011;46641;48.904;9.126;2022-09-17T21:54:42;1.40;;;1.30;;
60819;SDS011;46641;48.904;9.126;2022-09-17T21:59:32;1.20;;;1.10;;
60819;SDS011;46641;48.904;9.126;2022-09-17T22:04:22;2.25;;;1.63;;
60819;SDS011;46641;48.904;9.126;2022-09-17T22:09:17;1.97;;;1.13;;
60819;SDS011;46641;48.904;9.126;2022-09-17T22:14:19;4.17;;;1.10;;
60819;SDS011;46641;48.904;9.126;2022-09-17T22:19:14;2.83;;;1.30;;
60819;SDS011;46641;48.904;9.126;2022-09-17T22:24:06;4.83;;;1.43;;
60819;SDS011;46641;48.904;9.126;2022-09-17T22:29:04;1.43;;;1.20;;
60819;SDS011;46641;48.904;9.126;2022-09-17T22:34:00;3.73;;;1.33;;
60819;SDS011;46641;48.904;9.126;2022-09-17T22:38:51;1.50;;;1.40;;
60819;SDS011;46641;48.904;9.126;2022-09-17T22:43:45;2.20;;;1.10;;
60819;SDS011;46641;48.904;9.126;2022-09-17T22:48:36;2.40;;;1.00;;
60819;SDS011;46641;48.904;9.126;2022-09-17T22:53:27;4.53;;;1.50;;
60819;SDS011;46641;48.904;9.126;2022-09-17T22:58:17;2.07;;;1.50;;
60819;SDS011;46641;48.904;9.126;2022-09-17T23:03:09;2.40;;;1.17;;
60819;SDS011;46641;48.904;9.126;2022-09-17T23:08:00;2.63;;;1.30;;
60819;SDS011;46641;48.904;9.126;2022-09-17T23:12:52;1.47;;;1.10;;
60819;SDS011;46641;48.904;9.126;2022-09-17T23:17:43;1.70;;;1.10;;
60819;SDS011;46641;48.904;9.126;2022-09-17T23:22:33;3.50;;;1.50;;
60819;SDS011;46641;48.904;9.126;2022-09-17T23:27:23;4.93;;;1.63;;
60819;SDS011;46641;48.904;9.126;2022-09-17T23:32:14;1.70;;;1.13;;
60819;SDS011;46641;48.904;9.126;2022-09-17T23:37:04;1.77;;;0.88;;
60819;SDS011;46641;48.904;9.126;2022-09-17T23:41:55;3.33;;;1.13;;
60819;SDS011;46641;48.904;9.126;2022-09-17T23:46:45;3.10;;;1.70;;
60819;SDS011;46641;48.904;9.126;2022-09-17T23:51:35;2.30;;;1.30;;
60819;SDS011;46641;48.904;9.126;2022-09-17T23:56:26;2.63;;;1.23;;
